createdAt,value
2023-05-02T00:00:32.204Z,11.58
2023-05-02T00:02:59.114Z,11.42
2023-05-02T00:05:26.876Z,11.61
2023-05-02T00:07:53.663Z,11.51
2023-05-02T00:10:20.548Z,11.13
2023-05-02T00:12:47.125Z,11.38
2023-05-02T00:15:13.979Z,11.23
2023-05-02T00:17:44.387Z,11.29
2023-05-02T00:20:12.125Z,11.11
2023-05-02T00:22:39.634Z,10.93
2023-05-02T00:25:06.827Z,10.95
2023-05-02T00:27:33.615Z,10.91
2023-05-02T00:30:00.889Z,10.90
2023-05-02T00:32:28.184Z,10.89
2023-05-02T00:34:55.039Z,10.83
2023-05-02T00:37:21.624Z,10.94
2023-05-02T00:39:48.304Z,10.85
2023-05-02T00:42:14.972Z,10.47
2023-05-02T00:44:41.554Z,10.88
2023-05-02T00:47:08.342Z,10.84
2023-05-02T00:49:34.909Z,10.80
2023-05-02T00:52:01.948Z,10.93
2023-05-02T00:54:28.808Z,10.77
2023-05-02T00:56:55.522Z,10.92
2023-05-02T00:59:22.508Z,10.82
2023-05-02T01:02:13.664Z,11.00
2023-05-02T01:04:51.902Z,10.93
2023-05-02T01:07:45.135Z,10.89
2023-05-02T01:10:59.932Z,10.92
2023-05-02T01:13:31.904Z,10.77
2023-05-02T01:16:01.714Z,10.89
2023-05-02T01:18:32.622Z,10.92
2023-05-02T01:21:04.864Z,10.90
2023-05-02T01:23:57.319Z,10.93
2023-05-02T01:26:36.771Z,10.95
2023-05-02T01:29:08.493Z,10.92
2023-05-02T01:31:38.372Z,10.99
2023-05-02T01:34:10.036Z,10.89
2023-05-02T01:36:48.835Z,10.84
2023-05-02T01:39:20.447Z,11.04
2023-05-02T01:41:50.882Z,11.06
2023-05-02T01:44:19.899Z,10.96
2023-05-02T01:46:48.468Z,10.94
2023-05-02T01:49:15.850Z,10.81
2023-05-02T01:51:50.286Z,10.78
2023-05-02T01:54:20.570Z,10.68
2023-05-02T01:56:47.730Z,10.51
2023-05-02T01:59:23.262Z,10.52
2023-05-02T02:01:51.719Z,10.54
2023-05-02T02:04:19.991Z,10.50
2023-05-02T02:06:51.292Z,10.34
2023-05-02T02:09:18.204Z,10.28
2023-05-02T02:11:53.699Z,10.17
2023-05-02T02:14:24.562Z,9.99
2023-05-02T02:16:57.705Z,9.77
2023-05-02T02:19:24.901Z,9.65
2023-05-02T02:21:54.628Z,9.66
2023-05-02T02:24:22.817Z,9.37
2023-05-02T02:26:49.704Z,9.43
2023-05-02T02:29:16.390Z,9.58
2023-05-02T02:31:43.067Z,9.62
2023-05-02T02:34:10.012Z,9.38
2023-05-02T02:36:41.895Z,9.54
2023-05-02T02:39:42.278Z,9.64
2023-05-02T02:42:23.214Z,9.52
2023-05-02T02:44:56.578Z,9.51
2023-05-02T02:47:32.480Z,9.31
2023-05-02T02:50:11.541Z,9.33
2023-05-02T02:53:02.896Z,9.31
2023-05-02T02:55:41.668Z,9.29
2023-05-02T02:58:26.930Z,9.26
2023-05-02T03:00:53.947Z,8.91
2023-05-02T03:03:22.814Z,9.10
2023-05-02T03:05:49.906Z,9.07
2023-05-02T03:08:16.805Z,9.03
2023-05-02T03:10:43.462Z,8.91
2023-05-02T03:13:10.051Z,8.86
2023-05-02T03:15:52.273Z,8.97
2023-05-02T03:18:19.263Z,8.85
2023-05-02T03:20:46.119Z,8.83
2023-05-02T03:23:12.969Z,8.69
2023-05-02T03:25:39.578Z,8.57
2023-05-02T03:28:06.215Z,8.70
2023-05-02T03:30:33.074Z,8.74
2023-05-02T03:33:00.645Z,8.66
2023-05-02T03:35:27.325Z,8.58
2023-05-02T03:37:54.059Z,8.50
2023-05-02T03:40:22.006Z,8.48
2023-05-02T03:42:48.740Z,8.20
2023-05-02T03:45:15.684Z,8.43
2023-05-02T03:47:42.612Z,8.52
2023-05-02T03:50:09.483Z,8.43
2023-05-02T03:52:36.228Z,8.51
2023-05-02T03:55:03.169Z,8.47
2023-05-02T03:57:32.868Z,8.03
2023-05-02T04:00:00.819Z,8.38
2023-05-02T04:02:27.822Z,8.47
2023-05-02T04:04:54.491Z,8.48
2023-05-02T04:07:21.325Z,8.33
2023-05-02T04:09:47.984Z,8.45
2023-05-02T04:12:15.702Z,8.22
2023-05-02T04:14:42.496Z,8.46
2023-05-02T04:17:09.211Z,8.33
2023-05-02T04:19:35.876Z,8.37
2023-05-02T04:22:03.833Z,8.32
2023-05-02T04:24:30.393Z,8.34
2023-05-02T04:26:57.024Z,8.33
2023-05-02T04:29:23.670Z,8.40
2023-05-02T04:31:51.584Z,8.26
2023-05-02T04:34:18.125Z,8.32
2023-05-02T04:36:47.912Z,8.32
2023-05-02T04:39:14.526Z,8.23
2023-05-02T04:41:41.693Z,8.36
2023-05-02T04:44:08.480Z,8.32
2023-05-02T04:46:35.103Z,8.26
2023-05-02T04:49:02.170Z,8.24
2023-05-02T04:51:29.307Z,8.22
2023-05-02T04:53:55.860Z,8.23
2023-05-02T04:56:22.579Z,8.19
2023-05-02T04:58:49.320Z,8.21
2023-05-02T05:01:16.394Z,8.23
2023-05-02T05:03:43.427Z,8.21
2023-05-02T05:06:10.354Z,8.25
2023-05-02T05:08:37.016Z,8.27
2023-05-02T05:11:05.193Z,8.35
2023-05-02T05:13:32.552Z,8.26
2023-05-02T05:15:59.258Z,8.24
2023-05-02T05:18:25.981Z,8.35
2023-05-02T05:20:53.066Z,8.36
2023-05-02T05:23:19.588Z,8.34
2023-05-02T05:25:46.259Z,8.35
2023-05-02T05:28:13.052Z,8.37
2023-05-02T05:30:39.654Z,8.30
2023-05-02T05:33:06.288Z,8.37
2023-05-02T05:35:33.300Z,8.34
2023-05-02T05:37:59.866Z,8.40
2023-05-02T05:40:26.750Z,8.42
2023-05-02T05:42:54.042Z,8.29
2023-05-02T05:45:20.700Z,8.55
2023-05-02T05:47:47.256Z,8.35
2023-05-02T05:50:14.291Z,8.60
2023-05-02T05:52:41.084Z,8.71
2023-05-02T05:55:08.100Z,8.71
2023-05-02T05:57:34.944Z,8.68
2023-05-02T06:00:02.009Z,8.55
2023-05-02T06:02:29.276Z,8.20
2023-05-02T06:04:56.252Z,8.41
2023-05-02T06:07:23.063Z,8.54
2023-05-02T06:09:49.647Z,8.47
2023-05-02T06:12:16.695Z,8.49
2023-05-02T06:14:43.471Z,8.53
2023-05-02T06:17:10.096Z,8.60
2023-05-02T06:19:37.040Z,8.60
2023-05-02T06:22:03.647Z,8.63
2023-05-02T06:24:30.209Z,8.48
2023-05-02T06:26:57.030Z,8.71
2023-05-02T06:29:23.622Z,8.73
2023-05-02T06:31:51.433Z,8.89
2023-05-02T06:34:18.341Z,8.84
2023-05-02T06:36:45.129Z,8.79
2023-05-02T06:39:11.780Z,8.95
2023-05-02T06:41:38.505Z,8.97
2023-05-02T06:44:05.450Z,9.08
2023-05-02T06:46:32.287Z,8.98
2023-05-02T06:48:59.083Z,8.95
2023-05-02T06:51:26.032Z,8.59
2023-05-02T06:53:52.749Z,8.79
2023-05-02T06:56:19.761Z,8.99
2023-05-02T06:58:46.424Z,8.91
2023-05-02T07:01:13.092Z,8.99
2023-05-02T07:03:40.073Z,9.01
2023-05-02T07:06:06.718Z,8.95
2023-05-02T07:08:33.516Z,8.66
2023-05-02T07:11:00.154Z,8.94
2023-05-02T07:13:26.762Z,8.85
2023-05-02T07:15:53.793Z,8.99
2023-05-02T07:18:21.326Z,8.97
2023-05-02T07:20:48.325Z,9.18
2023-05-02T07:23:14.933Z,9.14
2023-05-02T07:25:41.922Z,9.12
2023-05-02T07:28:08.716Z,9.20
2023-05-02T07:30:35.371Z,9.22
2023-05-02T07:33:02.533Z,9.21
2023-05-02T07:35:29.176Z,9.30
2023-05-02T07:37:55.881Z,9.35
2023-05-02T07:40:22.833Z,9.24
2023-05-02T07:42:50.844Z,9.23
2023-05-02T07:45:17.578Z,9.45
2023-05-02T07:47:45.991Z,9.39
2023-05-02T07:50:12.661Z,9.59
2023-05-02T07:52:39.258Z,9.63
2023-05-02T07:55:06.760Z,9.65
2023-05-02T07:57:33.410Z,9.78
2023-05-02T08:00:00.340Z,9.88
2023-05-02T08:02:27.714Z,9.67
2023-05-02T08:04:54.476Z,9.90
2023-05-02T08:07:21.576Z,9.91
2023-05-02T08:09:48.594Z,10.06
2023-05-02T08:12:15.180Z,10.30
2023-05-02T08:14:41.842Z,10.14
2023-05-02T08:17:08.670Z,10.71
2023-05-02T08:19:35.405Z,10.88
2023-05-02T08:22:02.039Z,10.97
2023-05-02T08:24:29.613Z,11.20
2023-05-02T08:26:56.180Z,11.16
2023-05-02T08:29:24.133Z,10.80
2023-05-02T08:31:51.109Z,10.90
2023-05-02T08:34:17.807Z,10.46
2023-05-02T08:36:44.397Z,10.73
2023-05-02T08:39:11.834Z,10.74
2023-05-02T08:41:39.005Z,10.63
2023-05-02T08:44:07.834Z,10.66
2023-05-02T08:46:37.962Z,10.24
2023-05-02T08:49:05.617Z,10.60
2023-05-02T08:51:33.546Z,10.56
2023-05-02T08:54:03.066Z,10.40
2023-05-02T08:56:30.039Z,10.75
2023-05-02T08:58:56.619Z,10.89
2023-05-02T09:01:24.702Z,11.12
2023-05-02T09:03:52.420Z,11.19
2023-05-02T09:06:21.123Z,11.42
2023-05-02T09:08:50.469Z,11.49
2023-05-02T09:11:18.124Z,11.53
2023-05-02T09:13:46.679Z,11.48
2023-05-02T09:16:15.567Z,11.49
2023-05-02T09:18:45.959Z,11.48
2023-05-02T09:21:17.289Z,11.08
2023-05-02T09:23:47.972Z,11.63
2023-05-02T09:26:16.034Z,11.62
2023-05-02T09:28:46.679Z,11.60
2023-05-02T09:31:49.527Z,11.65
2023-05-02T09:34:18.322Z,11.56
2023-05-02T09:36:47.565Z,11.52
2023-05-02T09:39:16.814Z,11.52
2023-05-02T09:41:48.389Z,11.56
2023-05-02T09:44:19.047Z,11.60
2023-05-02T09:46:48.097Z,11.56
2023-05-02T09:49:18.982Z,11.65
2023-05-02T09:51:47.661Z,11.50
2023-05-02T09:54:15.088Z,11.43
2023-05-02T09:56:56.794Z,11.35
2023-05-02T09:59:24.370Z,11.11
2023-05-02T10:01:59.113Z,11.18
2023-05-02T10:04:26.765Z,11.20
2023-05-02T10:06:54.684Z,11.28
2023-05-02T10:09:23.236Z,11.25
2023-05-02T10:11:54.712Z,11.49
2023-05-02T10:14:28.625Z,11.77
2023-05-02T10:17:10.095Z,11.97
2023-05-02T10:19:40.048Z,12.19
2023-05-02T10:22:07.905Z,12.32
2023-05-02T10:24:34.876Z,12.13
2023-05-02T10:27:04.024Z,12.07
2023-05-02T10:29:31.796Z,12.02
2023-05-02T10:32:01.120Z,11.89
2023-05-02T10:34:28.304Z,11.76
2023-05-02T10:37:01.306Z,11.90
2023-05-02T10:39:28.958Z,12.02
2023-05-02T10:41:58.463Z,12.10
2023-05-02T10:44:41.356Z,12.08
2023-05-02T10:47:22.989Z,12.18
2023-05-02T10:49:55.206Z,12.08
2023-05-02T10:52:34.134Z,12.17
2023-05-02T10:55:23.300Z,12.34
2023-05-02T10:57:59.277Z,12.38
2023-05-02T11:00:34.186Z,12.41
2023-05-02T11:03:02.282Z,12.36
2023-05-02T11:05:29.366Z,12.30
2023-05-02T11:08:20.288Z,12.32
2023-05-02T11:10:48.811Z,12.18
2023-05-02T11:13:15.573Z,12.21
2023-05-02T11:15:42.396Z,12.38
2023-05-02T11:18:12.508Z,12.49
2023-05-02T11:20:42.853Z,12.48
2023-05-02T11:23:15.742Z,12.39
2023-05-02T11:25:43.694Z,12.34
2023-05-02T11:28:38.490Z,12.36
2023-05-02T11:31:06.799Z,12.41
2023-05-02T11:33:33.873Z,12.29
2023-05-02T11:36:01.406Z,12.45
2023-05-02T11:38:36.809Z,12.46
2023-05-02T11:41:04.491Z,12.35
2023-05-02T11:43:32.437Z,12.58
2023-05-02T11:46:01.994Z,12.54
2023-05-02T11:48:30.723Z,12.42
2023-05-02T11:51:02.296Z,12.49
2023-05-02T11:53:29.954Z,12.46
2023-05-02T11:55:59.136Z,12.48
2023-05-02T11:58:30.036Z,12.58
2023-05-02T12:00:57.394Z,12.45
2023-05-02T12:03:32.914Z,12.52
2023-05-02T12:06:14.148Z,12.43
2023-05-02T12:08:42.995Z,12.43
2023-05-02T12:11:09.821Z,12.38
2023-05-02T12:13:48.533Z,12.64
2023-05-02T12:16:16.539Z,12.76
2023-05-02T12:18:43.896Z,12.77
2023-05-02T12:21:11.055Z,12.85
2023-05-02T12:23:40.036Z,12.71
2023-05-02T12:26:33.881Z,12.36
2023-05-02T12:29:02.701Z,12.59
2023-05-02T12:31:31.361Z,12.48
2023-05-02T12:34:00.497Z,12.24
2023-05-02T12:36:33.651Z,12.45
2023-05-02T12:39:02.230Z,12.54
2023-05-02T12:41:33.492Z,12.71
2023-05-02T12:44:01.102Z,12.73
2023-05-02T12:46:31.636Z,12.55
2023-05-02T12:49:03.230Z,12.70
2023-05-02T12:51:31.602Z,12.88
2023-05-02T12:53:58.495Z,12.63
2023-05-02T12:56:27.692Z,12.66
2023-05-02T12:58:54.421Z,12.61
2023-05-02T13:01:21.240Z,12.68
2023-05-02T13:03:51.215Z,12.63
2023-05-02T13:06:18.693Z,12.72
2023-05-02T13:08:45.568Z,12.74
2023-05-02T13:11:13.490Z,12.80
2023-05-02T13:13:40.149Z,12.70
2023-05-02T13:16:08.325Z,12.70
2023-05-02T13:18:35.376Z,12.64
2023-05-02T13:21:02.099Z,12.54
2023-05-02T13:23:28.836Z,12.58
2023-05-02T13:25:55.948Z,12.47
2023-05-02T13:28:22.742Z,12.56
2023-05-02T13:30:49.526Z,12.46
2023-05-02T13:33:16.706Z,12.66
2023-05-02T13:35:43.644Z,12.54
2023-05-02T13:38:10.439Z,12.55
2023-05-02T13:40:37.013Z,12.41
2023-05-02T13:43:03.718Z,12.42
2023-05-02T13:45:30.683Z,12.29
2023-05-02T13:47:57.420Z,12.32
2023-05-02T13:50:24.119Z,12.16
2023-05-02T13:52:50.970Z,12.11
2023-05-02T13:55:17.702Z,12.18
2023-05-02T13:57:44.964Z,12.34
2023-05-02T14:00:12.298Z,12.27
2023-05-02T14:02:39.402Z,12.27
2023-05-02T14:05:07.128Z,12.31
2023-05-02T14:07:33.916Z,12.32
2023-05-02T14:10:00.959Z,12.19
2023-05-02T14:12:28.386Z,12.27
2023-05-02T14:14:55.227Z,12.19
2023-05-02T14:17:21.830Z,12.35
2023-05-02T14:19:48.983Z,12.31
2023-05-02T14:22:16.337Z,12.42
2023-05-02T14:24:43.077Z,11.97
2023-05-02T14:27:13.078Z,12.44
2023-05-02T14:29:40.209Z,12.34
2023-05-02T14:32:07.360Z,12.40
2023-05-02T14:34:34.182Z,12.18
2023-05-02T14:37:01.003Z,12.31
2023-05-02T14:39:27.916Z,12.07
2023-05-02T14:41:54.737Z,12.24
2023-05-02T14:44:21.501Z,12.32
2023-05-02T14:46:48.210Z,12.40
2023-05-02T14:49:15.127Z,12.27
2023-05-02T14:51:42.994Z,12.26
2023-05-02T14:54:09.683Z,12.25
2023-05-02T14:56:36.771Z,12.08
2023-05-02T14:59:03.472Z,12.05
2023-05-02T15:01:30.519Z,11.96
2023-05-02T15:04:06.736Z,11.96
2023-05-02T15:06:36.411Z,12.00
2023-05-02T15:09:04.911Z,12.02
2023-05-02T15:11:31.799Z,11.97
2023-05-02T15:13:59.460Z,11.87
2023-05-02T15:16:27.114Z,11.89
2023-05-02T15:18:54.188Z,11.77
2023-05-02T15:21:21.202Z,11.88
2023-05-02T15:23:48.042Z,11.65
2023-05-02T15:26:14.712Z,11.72
2023-05-02T15:28:41.602Z,11.84
2023-05-02T15:31:08.474Z,11.68
2023-05-02T15:33:35.120Z,11.63
2023-05-02T15:36:02.580Z,11.58
2023-05-02T15:38:29.839Z,11.40
2023-05-02T15:41:00.329Z,11.31
2023-05-02T15:43:27.512Z,11.24
2023-05-02T15:45:57.159Z,10.92
2023-05-02T15:48:28.042Z,10.90
2023-05-02T15:50:54.973Z,11.00
2023-05-02T15:53:24.884Z,10.86
2023-05-02T15:55:52.750Z,11.03
2023-05-02T15:58:20.942Z,11.06
2023-05-02T16:00:47.628Z,11.07
2023-05-02T16:03:15.448Z,11.11
2023-05-02T16:05:44.068Z,11.25
2023-05-02T16:08:10.712Z,11.25
2023-05-02T16:10:39.237Z,11.38
2023-05-02T16:13:06.289Z,11.49
2023-05-02T16:15:32.930Z,11.33
2023-05-02T16:17:59.898Z,11.38
2023-05-02T16:20:28.990Z,11.40
2023-05-02T16:22:55.641Z,11.06
2023-05-02T16:25:22.316Z,11.34
2023-05-02T16:27:49.235Z,11.18
2023-05-02T16:30:15.998Z,11.15
2023-05-02T16:32:42.644Z,11.02
2023-05-02T16:35:12.587Z,11.24
2023-05-02T16:37:43.501Z,11.10
2023-05-02T16:40:11.322Z,11.10
2023-05-02T16:42:39.130Z,10.83
2023-05-02T16:45:07.214Z,11.12
2023-05-02T16:47:35.022Z,11.19
2023-05-02T16:50:02.225Z,11.21
2023-05-02T16:52:29.350Z,11.12
2023-05-02T16:54:56.648Z,11.17
2023-05-02T16:57:23.864Z,11.16
2023-05-02T16:59:52.406Z,11.34
2023-05-02T17:02:22.744Z,11.21
2023-05-02T17:04:50.229Z,11.24
2023-05-02T17:07:17.556Z,11.16
2023-05-02T17:09:44.642Z,11.12
2023-05-02T17:12:12.779Z,10.85
2023-05-02T17:14:42.397Z,11.04
2023-05-02T17:17:10.105Z,10.84
2023-05-02T17:19:37.330Z,10.98
2023-05-02T17:22:05.271Z,10.89
2023-05-02T17:24:33.219Z,10.85
2023-05-02T17:27:01.048Z,10.42
2023-05-02T17:29:27.649Z,10.60
2023-05-02T17:31:56.983Z,10.74
2023-05-02T17:34:28.749Z,10.68
2023-05-02T17:36:56.025Z,10.76
2023-05-02T17:39:23.384Z,10.61
2023-05-02T17:41:50.279Z,10.66
2023-05-02T17:44:17.069Z,10.57
2023-05-02T17:46:43.733Z,10.40
2023-05-02T17:49:10.863Z,10.06
2023-05-02T17:51:37.618Z,10.19
2023-05-02T17:54:04.363Z,10.31
2023-05-02T17:56:34.498Z,10.36
2023-05-02T17:59:01.315Z,10.27
2023-05-02T18:01:28.018Z,10.05
2023-05-02T18:03:54.930Z,10.31
2023-05-02T18:06:21.896Z,10.27
2023-05-02T18:08:48.541Z,10.32
2023-05-02T18:11:17.046Z,10.27
2023-05-02T18:13:44.794Z,10.14
2023-05-02T18:16:13.921Z,10.03
2023-05-02T18:18:40.866Z,9.85
2023-05-02T18:21:09.617Z,9.84
2023-05-02T18:23:36.385Z,9.83
2023-05-02T18:26:03.762Z,9.81
2023-05-02T18:28:30.659Z,9.74
2023-05-02T18:30:57.343Z,9.61
2023-05-02T18:33:24.629Z,9.55
2023-05-02T18:35:51.438Z,9.55
2023-05-02T18:38:18.375Z,9.51
2023-05-02T18:40:45.532Z,9.47
2023-05-02T18:43:12.420Z,9.38
2023-05-02T18:45:39.102Z,9.35
2023-05-02T18:48:06.118Z,9.19
2023-05-02T18:50:32.943Z,9.20
2023-05-02T18:52:59.679Z,9.27
2023-05-02T18:55:26.484Z,9.25
2023-05-02T18:57:53.280Z,9.23
2023-05-02T19:00:20.535Z,9.19
2023-05-02T19:02:48.111Z,9.23
2023-05-02T19:05:15.175Z,9.17
2023-05-02T19:07:42.460Z,8.73
2023-05-02T19:10:11.282Z,9.09
2023-05-02T19:12:38.393Z,9.04
2023-05-02T19:15:06.783Z,8.77
2023-05-02T19:17:33.844Z,8.92
2023-05-02T19:20:01.343Z,8.98
2023-05-02T19:22:28.018Z,8.90
2023-05-02T19:24:55.303Z,8.92
2023-05-02T19:27:22.273Z,8.70
2023-05-02T19:29:53.154Z,8.89
2023-05-02T19:32:22.081Z,8.84
2023-05-02T19:34:48.810Z,8.84
2023-05-02T19:37:15.395Z,8.91
2023-05-02T19:39:42.164Z,8.83
2023-05-02T19:42:09.302Z,8.87
2023-05-02T19:44:35.939Z,8.85
2023-05-02T19:47:02.565Z,8.88
2023-05-02T19:49:29.535Z,8.64
2023-05-02T19:51:56.171Z,8.66
2023-05-02T19:54:22.859Z,8.71
2023-05-02T19:56:49.552Z,8.48
2023-05-02T19:59:16.163Z,8.47
2023-05-02T20:01:43.185Z,8.42
2023-05-02T20:04:09.937Z,8.42
2023-05-02T20:06:36.611Z,8.35
2023-05-02T20:09:03.620Z,8.18
2023-05-02T20:11:30.938Z,8.09
2023-05-02T20:13:57.673Z,8.23
2023-05-02T20:16:24.741Z,8.13
2023-05-02T20:18:52.892Z,8.04
2023-05-02T20:21:19.535Z,8.12
2023-05-02T20:23:46.186Z,8.15
2023-05-02T20:26:14.233Z,7.91
2023-05-02T20:28:40.835Z,8.14
2023-05-02T20:31:08.212Z,7.94
2023-05-02T20:33:44.769Z,8.10
2023-05-02T20:36:13.526Z,8.14
2023-05-02T20:38:42.365Z,8.02
2023-05-02T20:41:12.607Z,8.14
2023-05-02T20:43:45.163Z,7.90
2023-05-02T20:46:13.648Z,8.00
2023-05-02T20:48:40.366Z,8.04
2023-05-02T20:51:08.785Z,7.89
2023-05-02T20:53:39.282Z,7.84
2023-05-02T20:56:06.796Z,7.59
2023-05-02T20:58:33.772Z,7.72
2023-05-02T21:01:00.421Z,7.88
2023-05-02T21:03:28.150Z,7.87
2023-05-02T21:05:56.408Z,7.75
2023-05-02T21:08:23.328Z,7.83
2023-05-02T21:10:50.110Z,7.69
2023-05-02T21:13:17.231Z,7.80
2023-05-02T21:15:43.953Z,7.70
2023-05-02T21:18:10.674Z,7.58
2023-05-02T21:20:41.573Z,7.87
2023-05-02T21:23:11.251Z,7.90
2023-05-02T21:25:38.451Z,7.89
2023-05-02T21:28:06.207Z,7.88
2023-05-02T21:30:32.899Z,7.92
2023-05-02T21:32:59.692Z,7.95
2023-05-02T21:35:27.108Z,7.98
2023-05-02T21:37:53.720Z,8.01
2023-05-02T21:40:20.389Z,7.94
2023-05-02T21:42:47.085Z,7.85
2023-05-02T21:45:13.740Z,8.02
2023-05-02T21:47:41.032Z,7.89
2023-05-02T21:50:08.705Z,7.88
2023-05-02T21:52:36.002Z,8.09
2023-05-02T21:55:02.833Z,7.82
2023-05-02T21:57:29.749Z,7.92
2023-05-02T21:59:56.383Z,7.90
2023-05-02T22:02:23.656Z,7.92
2023-05-02T22:04:51.124Z,7.94
2023-05-02T22:07:17.794Z,7.78
2023-05-02T22:09:44.698Z,7.86
2023-05-02T22:12:11.785Z,7.82
2023-05-02T22:14:45.426Z,7.62
2023-05-02T22:17:13.483Z,7.50
2023-05-02T22:19:40.663Z,7.59
2023-05-02T22:22:07.412Z,7.68
2023-05-02T22:24:34.268Z,7.59
2023-05-02T22:27:00.937Z,7.62
2023-05-02T22:29:27.551Z,7.49
2023-05-02T22:31:54.465Z,7.57
2023-05-02T22:34:21.167Z,7.63
2023-05-02T22:36:47.774Z,7.44
2023-05-02T22:39:15.897Z,7.54
2023-05-02T22:41:43.176Z,7.68
2023-05-02T22:44:10.561Z,7.59
2023-05-02T22:46:38.688Z,7.72
2023-05-02T22:49:07.666Z,7.52
2023-05-02T22:51:34.309Z,7.69
2023-05-02T22:54:03.304Z,7.79
2023-05-02T22:56:30.049Z,7.20
2023-05-02T22:58:56.665Z,7.65
2023-05-02T23:01:23.498Z,7.65
2023-05-02T23:03:50.178Z,7.78
2023-05-02T23:06:17.344Z,7.86
2023-05-02T23:08:44.089Z,7.63
2023-05-02T23:11:10.710Z,7.72
2023-05-02T23:13:37.359Z,7.77
2023-05-02T23:16:04.809Z,7.75
2023-05-02T23:18:31.707Z,7.88
2023-05-02T23:20:58.313Z,7.73
2023-05-02T23:23:25.172Z,7.85
2023-05-02T23:25:51.845Z,7.85
2023-05-02T23:28:18.488Z,7.67
2023-05-02T23:30:45.940Z,7.70
2023-05-02T23:33:13.003Z,7.55
2023-05-02T23:35:39.760Z,7.61
2023-05-02T23:38:08.171Z,7.69
2023-05-02T23:40:34.994Z,7.57
2023-05-02T23:43:01.854Z,7.59
2023-05-02T23:45:28.856Z,7.50
2023-05-02T23:47:55.914Z,7.41
2023-05-02T23:50:22.564Z,7.39
2023-05-02T23:52:49.333Z,7.43
2023-05-02T23:55:16.100Z,7.39
2023-05-02T23:57:42.739Z,7.41
